createdAt,value
2018-01-08T00:01:51.162Z,4.39
2018-01-08T00:04:21.990Z,4.26
2018-01-08T00:06:52.809Z,4.03
2018-01-08T00:09:30.688Z,4.46
2018-01-08T00:12:01.420Z,4.38
2018-01-08T00:14:32.193Z,4.33
2018-01-08T00:17:03.014Z,4.40
2018-01-08T00:19:33.771Z,4.40
2018-01-08T00:22:04.537Z,4.51
2018-01-08T00:24:35.437Z,4.41
2018-01-08T00:27:06.208Z,4.57
2018-01-08T00:29:36.968Z,4.51
2018-01-08T00:32:07.716Z,4.55
2018-01-08T00:34:38.492Z,4.41
2018-01-08T00:37:09.232Z,4.32
2018-01-08T00:39:39.997Z,4.39
2018-01-08T00:42:10.744Z,4.28
2018-01-08T00:44:41.516Z,4.19
2018-01-08T00:47:12.280Z,4.03
2018-01-08T00:49:44.140Z,4.22
2018-01-08T00:52:14.880Z,4.09
2018-01-08T00:54:45.672Z,4.14
2018-01-08T00:57:16.502Z,4.04
2018-01-08T00:59:47.294Z,4.00
2018-01-08T01:02:18.059Z,4.02
2018-01-08T01:04:48.864Z,3.97
2018-01-08T01:07:19.604Z,4.21
2018-01-08T01:09:50.373Z,4.13
2018-01-08T01:12:21.116Z,4.04
2018-01-08T01:14:51.872Z,3.86
2018-01-08T01:17:24.672Z,3.78
2018-01-08T01:19:55.524Z,3.71
2018-01-08T01:22:26.282Z,3.67
2018-01-08T01:24:57.125Z,3.71
2018-01-08T01:27:27.972Z,3.73
2018-01-08T01:29:58.769Z,3.71
2018-01-08T01:32:29.513Z,3.80
2018-01-08T01:35:00.300Z,3.79
2018-01-08T01:37:31.048Z,3.73
2018-01-08T01:40:01.837Z,3.57
2018-01-08T01:42:32.620Z,3.53
2018-01-08T01:45:03.393Z,3.55
2018-01-08T01:47:34.170Z,3.59
2018-01-08T01:50:04.929Z,3.63
2018-01-08T01:52:35.679Z,3.62
2018-01-08T01:55:06.467Z,3.60
2018-01-08T01:57:37.273Z,3.63
2018-01-08T02:00:08.042Z,3.58
2018-01-08T02:02:38.792Z,3.61
2018-01-08T02:05:09.535Z,3.64
2018-01-08T02:07:40.272Z,3.59
2018-01-08T02:10:11.033Z,3.56
2018-01-08T02:12:41.792Z,3.65
2018-01-08T02:15:12.574Z,3.73
2018-01-08T02:17:43.330Z,3.81
2018-01-08T02:20:14.084Z,3.80
2018-01-08T02:22:44.840Z,3.92
2018-01-08T02:25:15.620Z,3.90
2018-01-08T02:27:46.374Z,4.07
2018-01-08T02:30:17.128Z,3.86
2018-01-08T02:32:47.876Z,3.67
2018-01-08T02:35:18.644Z,3.78
2018-01-08T02:37:49.413Z,3.67
2018-01-08T02:40:20.182Z,3.64
2018-01-08T02:42:50.951Z,3.95
2018-01-08T02:45:21.733Z,3.98
2018-01-08T02:47:52.497Z,3.93
2018-01-08T02:50:23.284Z,3.76
2018-01-08T02:52:54.085Z,3.80
2018-01-08T02:55:24.870Z,3.87
2018-01-08T02:57:55.618Z,3.92
2018-01-08T03:00:27.465Z,4.00
2018-01-08T03:02:58.216Z,4.13
2018-01-08T03:05:29.011Z,4.05
2018-01-08T03:07:59.772Z,4.01
2018-01-08T03:10:30.536Z,3.97
2018-01-08T03:13:01.300Z,4.01
2018-01-08T03:15:35.316Z,3.91
2018-01-08T03:18:06.071Z,3.76
2018-01-08T03:20:36.863Z,3.79
2018-01-08T03:23:07.629Z,4.01
2018-01-08T03:25:38.396Z,3.81
2018-01-08T03:28:09.142Z,3.88
2018-01-08T03:30:39.925Z,3.93
2018-01-08T03:33:10.701Z,3.93
2018-01-08T03:35:41.481Z,3.74
2018-01-08T03:38:12.245Z,3.70
2018-01-08T03:40:43.008Z,3.62
2018-01-08T03:43:13.764Z,3.51
2018-01-08T03:45:44.572Z,3.39
2018-01-08T03:48:15.360Z,3.20
2018-01-08T03:50:46.117Z,3.01
2018-01-08T03:53:16.872Z,2.87
2018-01-08T03:55:47.637Z,2.88
2018-01-08T03:58:19.441Z,2.88
2018-01-08T04:00:50.221Z,2.93
2018-01-08T04:03:20.980Z,3.03
2018-01-08T04:05:51.741Z,3.21
2018-01-08T04:08:22.499Z,3.31
2018-01-08T04:10:53.297Z,3.19
2018-01-08T04:13:24.044Z,3.08
2018-01-08T04:15:54.821Z,2.96
2018-01-08T04:18:25.566Z,2.90
2018-01-08T04:20:56.344Z,3.03
2018-01-08T04:23:27.096Z,3.01
2018-01-08T04:25:57.868Z,2.91
2018-01-08T04:28:28.610Z,2.79
2018-01-08T04:30:59.419Z,2.71
2018-01-08T04:33:30.226Z,2.70
2018-01-08T04:36:00.992Z,2.74
2018-01-08T04:38:31.748Z,3.15
2018-01-08T04:41:02.522Z,3.34
2018-01-08T04:43:33.277Z,3.40
2018-01-08T04:46:04.049Z,3.37
2018-01-08T04:48:34.788Z,3.23
2018-01-08T04:51:05.566Z,3.17
2018-01-08T04:53:36.328Z,3.57
2018-01-08T04:56:07.091Z,3.96
2018-01-08T04:58:37.828Z,4.03
2018-01-08T05:01:08.587Z,4.03
2018-01-08T05:03:39.324Z,3.90
2018-01-08T05:06:10.093Z,3.86
2018-01-08T05:08:40.853Z,3.98
2018-01-08T05:11:11.615Z,3.92
2018-01-08T05:13:42.340Z,3.90
2018-01-08T05:16:13.103Z,3.99
2018-01-08T05:18:43.848Z,4.17
2018-01-08T05:21:14.641Z,4.30
2018-01-08T05:23:45.376Z,4.28
2018-01-08T05:26:16.144Z,4.22
2018-01-08T05:28:46.893Z,4.09
2018-01-08T05:31:17.656Z,4.03
2018-01-08T05:33:48.404Z,3.95
2018-01-08T05:36:19.154Z,4.02
2018-01-08T05:38:49.898Z,3.95
2018-01-08T05:41:20.657Z,3.89
2018-01-08T05:43:51.413Z,3.90
2018-01-08T05:46:22.189Z,3.97
2018-01-08T05:48:52.962Z,3.97
2018-01-08T05:51:23.732Z,3.87
2018-01-08T05:53:54.480Z,3.89
2018-01-08T05:56:25.248Z,3.95
2018-01-08T05:58:56.021Z,4.05
2018-01-08T06:01:26.789Z,3.95
2018-01-08T06:03:57.564Z,3.83
2018-01-08T06:06:28.339Z,3.83
2018-01-08T06:08:59.097Z,3.84
2018-01-08T06:11:29.876Z,3.75
2018-01-08T06:14:00.710Z,3.65
2018-01-08T06:16:31.508Z,3.58
2018-01-08T06:19:02.301Z,3.59
2018-01-08T06:21:33.082Z,3.51
2018-01-08T06:24:03.849Z,3.44
2018-01-08T06:26:34.628Z,3.45
2018-01-08T06:29:06.441Z,3.71
2018-01-08T06:31:37.215Z,3.74
2018-01-08T06:34:07.985Z,3.71
2018-01-08T06:36:38.748Z,3.78
2018-01-08T06:39:09.493Z,3.77
2018-01-08T06:41:40.273Z,3.82
2018-01-08T06:44:11.030Z,3.86
2018-01-08T06:46:41.799Z,3.97
2018-01-08T06:49:12.548Z,4.01
2018-01-08T06:51:43.305Z,4.07
2018-01-08T06:54:14.048Z,3.95
2018-01-08T06:56:45.860Z,4.04
2018-01-08T06:59:16.595Z,4.01
2018-01-08T07:01:52.224Z,4.09
2018-01-08T07:04:29.852Z,4.19
2018-01-08T07:07:00.617Z,4.29
2018-01-08T07:09:31.360Z,4.33
2018-01-08T07:12:02.157Z,4.30
2018-01-08T07:14:32.904Z,4.31
2018-01-08T07:17:03.684Z,4.33
2018-01-08T07:19:34.430Z,4.35
2018-01-08T07:22:06.289Z,4.47
2018-01-08T07:24:37.066Z,4.41
2018-01-08T07:27:07.828Z,4.44
2018-01-08T07:29:38.592Z,4.45
2018-01-08T07:32:09.372Z,4.43
2018-01-08T07:34:40.168Z,4.38
2018-01-08T07:37:10.938Z,4.25
2018-01-08T07:39:41.847Z,4.26
2018-01-08T07:42:12.825Z,4.36
2018-01-08T07:44:43.613Z,4.37
2018-01-08T07:47:14.687Z,4.36
2018-01-08T07:49:46.558Z,4.42
2018-01-08T07:52:17.676Z,4.48
2018-01-08T07:54:48.878Z,4.51
2018-01-08T07:57:24.679Z,4.56
2018-01-08T07:59:55.686Z,4.59
2018-01-08T08:02:26.631Z,4.62
2018-01-08T08:04:57.862Z,4.67
2018-01-08T08:07:34.909Z,4.67
2018-01-08T08:10:06.024Z,4.64
2018-01-08T08:12:39.241Z,4.69
2018-01-08T08:15:13.426Z,4.69
2018-01-08T08:17:46.328Z,4.71
2018-01-08T08:20:17.151Z,4.70
2018-01-08T08:22:47.909Z,4.71
2018-01-08T08:25:18.645Z,4.74
2018-01-08T08:27:50.484Z,4.75
2018-01-08T08:30:21.229Z,4.73
2018-01-08T08:32:52.013Z,4.73
2018-01-08T08:35:22.861Z,4.83
2018-01-08T08:37:58.721Z,4.91
2018-01-08T08:40:29.523Z,4.94
2018-01-08T08:43:00.246Z,4.99
2018-01-08T08:45:31.004Z,5.01
2018-01-08T08:48:01.766Z,5.14
2018-01-08T08:50:32.534Z,5.21
2018-01-08T08:53:04.354Z,5.27
2018-01-08T08:55:35.140Z,5.29
2018-01-08T08:58:07.998Z,5.39
2018-01-08T09:00:38.833Z,5.40
2018-01-08T09:03:09.632Z,5.48
2018-01-08T09:05:45.969Z,5.50
2018-01-08T09:08:16.733Z,5.42
2018-01-08T09:10:47.476Z,5.49
2018-01-08T09:13:19.355Z,5.57
2018-01-08T09:15:50.102Z,5.66
2018-01-08T09:18:20.865Z,5.73
2018-01-08T09:20:51.610Z,5.77
2018-01-08T09:23:22.375Z,5.74
2018-01-08T09:25:54.216Z,5.86
2018-01-08T09:28:28.132Z,5.92
2018-01-08T09:30:59.916Z,5.96
2018-01-08T09:33:30.717Z,5.89
2018-01-08T09:36:01.453Z,5.92
2018-01-08T09:38:32.236Z,5.99
2018-01-08T09:41:02.993Z,6.05
2018-01-08T09:43:33.756Z,6.10
2018-01-08T09:46:06.536Z,6.18
2018-01-08T09:48:37.305Z,6.20
2018-01-08T09:51:08.051Z,6.17
2018-01-08T09:53:38.813Z,6.23
2018-01-08T09:56:09.576Z,6.32
2018-01-08T09:58:45.464Z,6.35
2018-01-08T10:01:17.433Z,6.38
2018-01-08T10:04:00.488Z,6.51
2018-01-08T10:06:43.752Z,6.54
2018-01-08T10:09:26.941Z,6.55
2018-01-08T10:12:14.446Z,6.57
2018-01-08T10:14:57.656Z,6.60
2018-01-08T10:17:40.798Z,6.59
2018-01-08T10:20:11.649Z,6.56
2018-01-08T10:22:42.517Z,6.57
2018-01-08T10:25:13.404Z,6.60
2018-01-08T10:27:44.265Z,6.70
2018-01-08T10:30:15.226Z,6.70
2018-01-08T10:32:46.115Z,6.83
2018-01-08T10:35:17.013Z,6.85
2018-01-08T10:37:47.887Z,6.99
2018-01-08T10:40:18.760Z,6.91
2018-01-08T10:42:55.684Z,6.89
2018-01-08T10:45:32.780Z,6.84
2018-01-08T10:48:09.872Z,6.95
2018-01-08T10:50:46.916Z,7.01
2018-01-08T10:53:20.853Z,7.19
2018-01-08T10:55:51.729Z,7.33
2018-01-08T10:58:22.590Z,7.32
2018-01-08T11:01:05.905Z,7.24
2018-01-08T11:03:42.877Z,7.18
2018-01-08T11:06:14.867Z,7.20
2018-01-08T11:08:45.675Z,7.22
2018-01-08T11:11:16.505Z,7.26
2018-01-08T11:13:47.380Z,7.31
2018-01-08T11:16:18.321Z,7.52
2018-01-08T11:18:56.785Z,7.33
2018-01-08T11:21:27.664Z,7.33
2018-01-08T11:23:58.500Z,7.33
2018-01-08T11:26:29.418Z,7.29
2018-01-08T11:29:00.285Z,7.44
2018-01-08T11:31:31.137Z,7.63
2018-01-08T11:34:02.016Z,7.69
2018-01-08T11:36:32.843Z,7.94
2018-01-08T11:39:03.741Z,8.25
2018-01-08T11:41:35.712Z,8.06
2018-01-08T11:44:06.521Z,8.20
2018-01-08T11:46:37.326Z,8.06
2018-01-08T11:49:12.092Z,8.07
2018-01-08T11:51:44.897Z,7.83
2018-01-08T11:54:20.944Z,7.76
2018-01-08T11:56:51.720Z,8.06
2018-01-08T11:59:29.802Z,8.26
2018-01-08T12:02:00.576Z,8.08
2018-01-08T12:04:33.392Z,8.20
2018-01-08T12:07:04.197Z,8.04
2018-01-08T12:09:35.272Z,7.82
2018-01-08T12:12:15.050Z,7.68
2018-01-08T12:14:46.876Z,7.63
2018-01-08T12:17:17.677Z,7.45
2018-01-08T12:19:48.450Z,7.08
2018-01-08T12:22:19.209Z,7.31
2018-01-08T12:24:50.021Z,7.09
2018-01-08T12:27:20.792Z,7.04
2018-01-08T12:29:51.547Z,7.12
2018-01-08T12:32:26.030Z,7.18
2018-01-08T12:34:56.800Z,7.34
2018-01-08T12:37:27.561Z,7.34
2018-01-08T12:40:02.097Z,7.27
2018-01-08T12:42:32.947Z,7.33
2018-01-08T12:45:04.791Z,7.57
2018-01-08T12:47:35.568Z,7.43
2018-01-08T12:50:06.363Z,7.53
2018-01-08T12:52:37.157Z,7.34
2018-01-08T12:55:07.912Z,7.34
2018-01-08T12:58:00.193Z,7.61
2018-01-08T13:00:31.002Z,7.44
2018-01-08T13:03:01.791Z,7.26
2018-01-08T13:05:39.652Z,7.11
2018-01-08T13:08:10.461Z,7.20
2018-01-08T13:10:41.303Z,7.22
2018-01-08T13:13:12.100Z,7.16
2018-01-08T13:15:43.156Z,7.21
2018-01-08T13:18:14.017Z,7.08
2018-01-08T13:20:44.777Z,6.99
2018-01-08T13:23:15.580Z,7.03
2018-01-08T13:25:58.376Z,7.04
2018-01-08T13:28:29.347Z,6.96
2018-01-08T13:31:00.147Z,6.94
2018-01-08T13:33:31.031Z,6.85
2018-01-08T13:36:01.933Z,6.81
2018-01-08T13:38:32.850Z,6.78
2018-01-08T13:41:03.651Z,6.71
2018-01-08T13:43:34.464Z,6.63
2018-01-08T13:46:05.268Z,6.57
2018-01-08T13:48:36.052Z,6.53
2018-01-08T13:51:06.819Z,6.63
2018-01-08T13:53:37.596Z,6.54
2018-01-08T13:56:08.372Z,6.55
2018-01-08T13:58:39.165Z,6.54
2018-01-08T14:01:09.956Z,6.61
2018-01-08T14:03:40.773Z,6.65
2018-01-08T14:06:30.452Z,6.62
2018-01-08T14:09:01.277Z,6.48
2018-01-08T14:11:32.204Z,6.45
2018-01-08T14:14:03.045Z,6.40
2018-01-08T14:16:33.813Z,6.39
2018-01-08T14:19:04.596Z,6.43
2018-01-08T14:21:35.367Z,6.33
2018-01-08T14:24:06.156Z,6.26
2018-01-08T14:29:54.388Z,6.11
2018-01-08T14:32:25.145Z,6.03
2018-01-08T14:34:57.992Z,6.04
2018-01-08T14:37:28.809Z,6.01
2018-01-08T14:40:00.682Z,5.86
2018-01-08T14:42:31.456Z,5.84
2018-01-08T14:45:16.220Z,5.80
2018-01-08T14:47:47.008Z,5.66
2018-01-08T14:50:17.823Z,5.68
2018-01-08T14:52:48.705Z,5.72
2018-01-08T14:55:19.485Z,5.69
2018-01-08T14:57:50.265Z,5.64
2018-01-08T15:00:21.049Z,5.53
2018-01-08T15:02:51.852Z,5.48
2018-01-08T15:05:22.735Z,5.45
2018-01-08T15:07:53.522Z,5.36
2018-01-08T15:10:24.308Z,5.38
2018-01-08T15:12:55.077Z,5.33
2018-01-08T15:15:25.868Z,5.22
2018-01-08T15:17:56.687Z,5.15
2018-01-08T15:20:40.505Z,5.23
2018-01-08T15:23:16.948Z,5.20
2018-01-08T15:26:02.068Z,5.06
2018-01-08T15:28:37.673Z,4.97
2018-01-08T15:31:08.437Z,5.07
2018-01-08T15:33:39.442Z,4.99
2018-01-08T15:36:10.421Z,4.87
2018-01-08T15:38:56.588Z,4.95
2018-01-08T15:41:30.788Z,4.86
2018-01-08T15:47:07.919Z,4.73
2018-01-08T15:49:38.713Z,4.78
2018-01-08T15:52:09.474Z,4.67
2018-01-08T15:54:40.268Z,4.59
2018-01-08T15:57:11.074Z,4.60
2018-01-08T15:59:41.880Z,4.38
2018-01-08T16:02:12.694Z,4.40
2018-01-08T16:04:52.052Z,4.45
2018-01-08T16:07:22.821Z,4.39
2018-01-08T16:09:53.602Z,4.51
2018-01-08T16:12:30.138Z,4.53
2018-01-08T16:15:00.906Z,4.49
2018-01-08T16:17:31.653Z,4.42
2018-01-08T16:20:10.779Z,4.46
2018-01-08T16:22:41.540Z,4.36
2018-01-08T16:25:12.300Z,4.31
2018-01-08T16:27:43.045Z,4.43
2018-01-08T16:30:13.829Z,4.36
2018-01-08T16:32:45.677Z,4.32
2018-01-08T16:35:16.476Z,4.35
2018-01-08T16:37:47.227Z,4.45
2018-01-08T16:40:29.440Z,4.44
2018-01-08T16:43:00.184Z,4.46
2018-01-08T16:45:32.967Z,4.54
2018-01-08T16:48:03.725Z,4.51
2018-01-08T16:50:34.496Z,4.58
2018-01-08T16:53:05.249Z,4.52
2018-01-08T16:55:36.049Z,4.54
2018-01-08T16:58:06.844Z,4.52
2018-01-08T17:00:37.617Z,4.45
2018-01-08T17:03:20.178Z,4.28
2018-01-08T17:05:50.962Z,4.21
2018-01-08T17:08:21.712Z,4.07
2018-01-08T17:10:57.596Z,4.01
2018-01-08T17:13:53.857Z,3.83
2018-01-08T17:16:33.586Z,3.71
2018-01-08T17:19:04.371Z,3.63
2018-01-08T17:21:35.138Z,3.62
2018-01-08T17:24:05.888Z,3.91
2018-01-08T17:27:01.008Z,3.92
2018-01-08T17:29:40.676Z,3.78
2018-01-08T17:32:11.437Z,3.80
2018-01-08T17:34:42.210Z,3.70
2018-01-08T17:37:12.966Z,3.78
2018-01-08T17:42:46.132Z,3.88
2018-01-08T17:45:16.940Z,4.00
2018-01-08T17:47:47.738Z,3.97
2018-01-08T17:50:18.526Z,3.93
2018-01-08T17:52:56.399Z,4.00
2018-01-08T17:55:27.148Z,3.96
2018-01-08T17:58:06.895Z,3.88
2018-01-08T18:00:37.664Z,3.83
2018-01-08T18:03:09.542Z,3.79
2018-01-08T18:05:40.342Z,3.85
2018-01-08T18:08:11.102Z,3.72
2018-01-08T18:10:41.864Z,3.56
2018-01-08T18:13:12.678Z,3.57
2018-01-08T18:15:43.446Z,3.51
2018-01-08T18:18:14.246Z,3.34
2018-01-08T18:20:45.007Z,3.46
2018-01-08T18:23:15.818Z,3.10
2018-01-08T18:25:46.586Z,3.34
2018-01-08T18:28:17.357Z,2.76
2018-01-08T18:30:48.268Z,3.23
2018-01-08T18:33:19.096Z,3.37
2018-01-08T18:35:49.988Z,3.24
2018-01-08T18:38:20.789Z,3.28
2018-01-08T18:40:51.616Z,3.26
2018-01-08T18:43:22.463Z,3.32
2018-01-08T18:46:20.127Z,3.32
2018-01-08T18:48:50.932Z,3.39
2018-01-08T18:51:21.704Z,3.29
2018-01-08T18:54:16.796Z,3.12
2018-01-08T18:56:47.581Z,3.20
2018-01-08T18:59:18.370Z,3.23
2018-01-08T19:01:49.148Z,3.29
2018-01-08T19:04:19.965Z,3.32
2018-01-08T19:06:51.820Z,3.32
2018-01-08T19:09:22.597Z,3.23
2018-01-08T19:11:53.348Z,3.16
2018-01-08T19:14:30.988Z,2.96
2018-01-08T19:17:01.898Z,2.83
2018-01-08T19:19:32.685Z,2.83
2018-01-08T19:22:03.467Z,2.77
2018-01-08T19:24:34.302Z,2.68
2018-01-08T19:27:05.121Z,2.67
2018-01-08T19:29:42.926Z,2.71
2018-01-08T19:32:13.716Z,2.51
2018-01-08T19:34:45.636Z,2.49
2018-01-08T19:37:16.377Z,2.39
2018-01-08T19:39:48.239Z,2.44
2018-01-08T19:42:23.763Z,2.59
2018-01-08T19:45:01.264Z,2.63
2018-01-08T19:47:32.013Z,2.65
2018-01-08T19:50:04.886Z,2.75
2018-01-08T19:52:35.702Z,2.90
2018-01-08T19:55:06.529Z,2.96
2018-01-08T19:57:37.322Z,2.84
2018-01-08T20:00:08.153Z,2.87
2018-01-08T20:02:39.941Z,3.15
2018-01-08T20:05:10.748Z,3.13
2018-01-08T20:07:41.560Z,3.16
2018-01-08T20:10:30.282Z,3.20
2018-01-08T20:13:01.082Z,3.23
2018-01-08T20:18:33.991Z,3.18
2018-01-08T20:21:04.800Z,3.24
2018-01-08T20:23:35.635Z,3.29
2018-01-08T20:26:26.352Z,3.28
2018-01-08T20:28:57.272Z,3.28
2018-01-08T20:31:29.380Z,3.31
2018-01-08T20:34:02.303Z,3.28
2018-01-08T20:36:33.084Z,3.23
2018-01-08T20:39:04.236Z,3.19
2018-01-08T20:41:36.120Z,3.27
2018-01-08T20:44:13.316Z,3.22
2018-01-08T20:46:46.152Z,3.32
2018-01-08T20:49:20.636Z,3.25
2018-01-08T20:51:53.541Z,3.16
2018-01-08T20:54:24.392Z,3.13
2018-01-08T20:57:01.159Z,3.21
2018-01-08T20:59:31.984Z,3.17
2018-01-08T21:02:02.799Z,3.17
2018-01-08T21:04:33.614Z,3.26
2018-01-08T21:07:04.396Z,3.19
2018-01-08T21:09:35.144Z,3.06
2018-01-08T21:12:06.980Z,3.04
2018-01-08T21:14:37.792Z,3.17
2018-01-08T21:17:15.417Z,3.28
2018-01-08T21:19:47.264Z,3.29
2018-01-08T21:22:18.069Z,3.29
2018-01-08T21:24:50.879Z,3.35
2018-01-08T21:27:21.805Z,3.29
2018-01-08T21:29:52.735Z,3.29
2018-01-08T21:32:23.620Z,3.27
2018-01-08T21:34:56.464Z,3.25
2018-01-08T21:37:27.335Z,3.24
2018-01-08T21:39:58.190Z,3.32
2018-01-08T21:42:32.271Z,3.29
2018-01-08T21:45:13.977Z,3.30
2018-01-08T21:47:44.785Z,3.33
2018-01-08T21:50:15.586Z,3.38
2018-01-08T21:52:47.508Z,3.38
2018-01-08T21:55:18.328Z,3.32
2018-01-08T21:57:49.187Z,3.29
2018-01-08T22:00:20.114Z,3.22
2018-01-08T22:02:50.939Z,3.12
2018-01-08T22:05:21.788Z,3.17
2018-01-08T22:07:52.591Z,3.15
2018-01-08T22:10:24.467Z,3.14
2018-01-08T22:12:55.279Z,3.10
2018-01-08T22:15:26.115Z,3.02
2018-01-08T22:17:59.041Z,3.02
2018-01-08T22:20:29.849Z,2.95
2018-01-08T22:23:03.071Z,2.77
2018-01-08T22:25:33.892Z,2.66
2018-01-08T22:28:04.781Z,2.75
2018-01-08T22:30:35.613Z,2.85
2018-01-08T22:33:06.448Z,2.94
2018-01-08T22:35:37.242Z,2.96
2018-01-08T22:38:09.121Z,3.05
2018-01-08T22:40:40.591Z,3.06
2018-01-08T22:43:11.428Z,3.09
2018-01-08T22:45:44.259Z,3.19
2018-01-08T22:48:15.063Z,3.30
2018-01-08T22:50:46.224Z,3.26
2018-01-08T22:56:12.948Z,3.03
2018-01-08T22:58:43.844Z,3.10
2018-01-08T23:01:15.716Z,3.10
2018-01-08T23:03:46.517Z,3.07
2018-01-08T23:06:17.337Z,3.00
2018-01-08T23:08:48.933Z,2.98
2018-01-08T23:11:19.763Z,3.02
2018-01-08T23:13:50.593Z,3.05
2018-01-08T23:16:21.446Z,3.08
2018-01-08T23:18:52.284Z,3.03
2018-01-08T23:21:23.164Z,3.10
2018-01-08T23:23:53.984Z,3.04
2018-01-08T23:26:24.784Z,3.07
2018-01-08T23:28:55.594Z,3.20
2018-01-08T23:31:26.438Z,3.19
2018-01-08T23:36:34.669Z,3.31
2018-01-08T23:39:05.436Z,3.24
2018-01-08T23:41:36.194Z,3.24
2018-01-08T23:44:07.018Z,3.19
2018-01-08T23:46:37.858Z,3.08
2018-01-08T23:49:08.646Z,3.04
2018-01-08T23:51:39.431Z,2.84
2018-01-08T23:54:21.462Z,2.89
2018-01-08T23:56:52.264Z,2.89
2018-01-08T23:59:23.025Z,2.94
